UKBBLTAY

Guest
Details From UKBB - Boryspil
To LTAY - Cardak
Flight Number -
Tags Generated
Created
Modified
Stats Distance 758 nm / 1,403 km
Max Altitude 0 ft / 0 m
Waypoints 4
Social Downloads 0
Likes 0
Share VATSIM

Download

Looking for another format? Having issues loading an existing format? Contact us
Advertisement - Login to hide

Notes

Generated

Route

UKBB BUNAG CRD LTAY

ID Type Via Altitude Latitude Longitude Leg Dist Tot Dist Heading (true) Name
O UKBB APT - 0 ft / 0 m 50.36056˚ 30.90660˚ - 0 nm - -
BUNAG FIX - 0 ft / 0 m 46.06637˚ 30.43170˚ 258 nm 258 nm 184° / 184° -
CRD NDB - 0 ft / 0 m 37.78972˚ 29.70417˚ 498 nm 756 nm 184° / 184° CARDAK NDB
O LTAY APT - 0 ft / 0 m 37.77859˚ 29.68671˚ 1 nm 757 nm 231° / 231° -

Altitude Profile

Advertisement - Login to hide

Weather


0- 5 10 15 20 25 30 35+ Temperature / ° C

Clouds and Precipitation
Forecast for 2017-12-19 00:00 UTC. Updated an hour ago

Ground ~20,000 ft ~40,000 ft Winds

UKBB

Details ICAO UKBB (KBP)
Name Boryspil
Region Ukraine
Timezone Europe/Kiev (UTC+2.0)
Stats Elevation 421 ft / 128 m (AMSL)
Location 50.339472° 30.892903°
Runways 2
Magnetic Variation 7.670° E

METAR

UKBB 182030Z 31007MPS 2800 -SN BLSN BKN006 OVC012 M01/M01 Q1005 R/SNOCLO TEMPO 32009G15MPS 0500 +SHSN BKN012CB

Decode

TAF

TAF TAF UKBB 181700Z 1818/1918 34008G13MPS 1400 SN BLSN OVC003 TEMPO 1818/1906 32009G15MPS 0500 +SHSN BKN002 BKN012CB BECMG 1906/1908 31006G11MPS 3000 -SN BR OVC005 TEMPO 1908/1918 32009G14MPS 1000 SHSN BLSN BKN003 SCT012CB TXM01/1912Z TNM04/1906Z

Decode

Departure Runways

ID Width Length Bearing (true) Bearing (mag) Surface Threshold Offset Overrun Length
18L 197 ft / 60 m 13,152 ft / 4,009 m 182.72° 175.05° Concrete 0 ft / 0 m 295 ft / 90 m
18R 207 ft / 63 m 11,470 ft / 3,496 m 182.62° 174.95° Concrete 0 ft / 0 m 164 ft / 50 m
36L 207 ft / 63 m 11,470 ft / 3,496 m 2.62° 354.95° Concrete 0 ft / 0 m 164 ft / 50 m
36R 197 ft / 60 m 13,152 ft / 4,009 m 2.72° 355.05° Concrete 0 ft / 0 m 295 ft / 90 m

LTAY

Details ICAO LTAY (DNZ)
Name CARDAK
Region Turkey
Timezone Europe/Istanbul (UTC+3.0)
Stats Elevation 2,795 ft / 852 m (AMSL)
Location 37.785564° 29.701296°
Runways 1
Magnetic Variation 5.089° E

METAR

LTAY 181950Z VRB05KT 9999 SCT035 BKN100 07/04 Q1017

Decode

TAF

Not found

Destination Runways

ID Width Length Bearing (true) Bearing (mag) Surface Threshold Offset Overrun Length
06 148 ft / 45 m 9,830 ft / 2,996 m 58.82° 53.73° Asphalt 0 ft / 0 m 480 ft / 146 m
24 148 ft / 45 m 9,830 ft / 2,996 m 238.84° 233.75° Asphalt 0 ft / 0 m 506 ft / 154 m

Approach Navaids

Runway Type Ident Frequency Range Bearing (true) Bearing (mag) Slope Elevation
24 Localiser ICRD 110.70 MHz 18 nm / 33 km 238.96° 233.87° - 2,806 ft / 855 m (AMSL)
24 Glidescope ICRD 110.70 MHz 10 nm / 19 km 238.83° 233.74° 3.00° 2,846 ft / 867 m (AMSL)